Time;durP1;ratioP1;P1;durP2;ratioP2;P2;SDS_P1;SDS_P2;PMS_P1;PMS_P2;Temp;Humidity;BMP_temperature;BMP_pressure;BME280_temperature;BME280_humidity;BME280_pressure;Samples;Min_cycle;Max_cycle;Signal;HPM_P1;HPM_P2
2021/11/06 00:01:12;;;;;;;17.95;9.50;;;;;;;8.80;74.23;102592.13;5062455;28;20044;-64
2021/11/06 00:03:40;;;;;;;19.48;8.93;;;;;;;8.78;74.49;102597.06;5058463;28;20099;-63
2021/11/06 00:06:07;;;;;;;18.45;8.77;;;;;;;8.88;74.48;102593.59;5058367;28;20057;-63
2021/11/06 00:08:35;;;;;;;20.85;9.10;;;;;;;8.86;74.06;102588.38;5066968;28;20075;-64
2021/11/06 00:11:02;;;;;;;16.25;9.48;;;;;;;9.08;73.60;102600.16;5046790;28;20064;-64
2021/11/06 00:13:30;;;;;;;22.70;9.85;;;;;;;8.77;74.08;102600.88;5056306;28;20053;-63
2021/11/06 00:15:57;;;;;;;22.83;10.20;;;;;;;8.66;74.53;102595.53;5057882;28;20048;-67
2021/11/06 00:18:25;;;;;;;18.17;9.43;;;;;;;8.50;75.39;102599.16;5057472;28;20049;-68
2021/11/06 00:20:53;;;;;;;19.42;8.88;;;;;;;8.34;76.44;102608.25;5057963;28;20053;-68
2021/11/06 00:23:20;;;;;;;16.92;9.50;;;;;;;8.39;76.35;102613.81;5040258;28;20053;-67
2021/11/06 00:25:48;;;;;;;17.52;9.85;;;;;;;8.30;77.13;102612.59;5073099;28;20053;-67
2021/11/06 00:28:15;;;;;;;19.65;9.52;;;;;;;8.05;77.44;102613.03;5062828;28;20476;-68
2021/11/06 00:30:42;;;;;;;15.40;9.13;;;;;;;8.11;77.66;102602.97;5065721;28;20741;-67
2021/11/06 00:33:10;;;;;;;20.83;9.00;;;;;;;8.31;77.09;102608.75;5056407;28;20049;-67
2021/11/06 00:35:37;;;;;;;20.27;9.07;;;;;;;8.36;76.85;102608.84;5054889;28;20056;-68
2021/11/06 00:38:05;;;;;;;14.45;8.30;;;;;;;8.26;76.80;102606.78;5057687;28;20116;-67
2021/11/06 00:40:32;;;;;;;17.48;8.45;;;;;;;8.35;76.85;102604.44;5066526;28;20535;-68
2021/11/06 00:42:59;;;;;;;15.93;8.07;;;;;;;8.29;76.67;102600.78;5057564;28;20052;-68
2021/11/06 00:45:27;;;;;;;16.65;8.52;;;;;;;8.13;77.60;102598.84;5040349;28;20049;-68
2021/11/06 00:47:54;;;;;;;15.40;8.25;;;;;;;8.17;77.74;102599.19;5057242;28;20045;-67
2021/11/06 00:50:22;;;;;;;18.52;8.23;;;;;;;8.15;77.65;102599.44;5057821;28;20056;-67
2021/11/06 00:52:49;;;;;;;15.63;8.30;;;;;;;8.15;77.27;102595.84;5058450;28;20067;-67
2021/11/06 00:55:17;;;;;;;16.30;8.30;;;;;;;8.17;77.18;102593.69;5057561;28;20045;-67
2021/11/06 00:57:45;;;;;;;18.67;7.55;;;;;;;7.89;78.10;102595.47;5057205;28;20060;-67
2021/11/06 01:00:13;;;;;;;16.33;8.02;;;;;;;7.81;78.51;102595.06;5057807;28;20072;-68
2021/11/06 01:02:40;;;;;;;16.52;7.90;;;;;;;7.89;78.11;102587.25;5056565;28;20053;-67
2021/11/06 01:05:09;;;;;;;23.02;8.13;;;;;;;7.85;77.60;102577.84;5057659;28;20045;-67
2021/11/06 01:07:37;;;;;;;15.27;7.78;;;;;;;7.90;77.98;102574.34;5056892;28;20064;-67
2021/11/06 01:10:06;;;;;;;15.27;7.38;;;;;;;8.04;77.86;102572.91;5057086;28;20061;-67
2021/11/06 01:12:33;;;;;;;18.33;9.03;;;;;;;8.40;76.55;102568.81;5057098;28;20045;-67
2021/11/06 01:15:01;;;;;;;15.48;8.52;;;;;;;8.21;76.52;102572.91;5055997;28;20041;-67
2021/11/06 01:17:28;;;;;;;16.00;8.35;;;;;;;8.12;77.08;102582.66;5055503;28;20049;-67
2021/11/06 01:19:56;;;;;;;14.30;8.25;;;;;;;8.28;76.22;102571.66;5057098;28;20056;-68
2021/11/06 01:22:23;;;;;;;18.90;9.05;;;;;;;8.21;75.84;102579.19;5054573;28;20061;-67
2021/11/06 01:24:50;;;;;;;16.85;8.10;;;;;;;8.23;75.85;102584.47;5054615;28;20045;-67
2021/11/06 01:27:18;;;;;;;16.58;8.27;;;;;;;8.22;75.70;102578.13;5056907;28;20049;-69
2021/11/06 01:29:46;;;;;;;15.95;7.68;;;;;;;8.33;75.64;102579.16;5056602;28;20045;-67
2021/11/06 01:32:13;;;;;;;15.60;7.95;;;;;;;8.54;75.06;102576.41;5055027;28;20064;-67
2021/11/06 01:34:41;;;;;;;16.08;7.43;;;;;;;8.53;74.35;102583.00;5055355;28;20042;-67
2021/11/06 01:37:08;;;;;;;15.20;7.10;;;;;;;8.26;74.88;102578.50;5055388;28;20048;-64
2021/11/06 01:39:36;;;;;;;14.88;7.22;;;;;;;8.13;75.84;102578.81;5056925;28;20439;-63
2021/11/06 01:42:04;;;;;;;12.77;6.28;;;;;;;8.02;76.28;102577.00;5056536;28;20053;-63
2021/11/06 01:44:31;;;;;;;14.90;6.60;;;;;;;8.22;75.57;102578.13;5054826;28;20056;-63
2021/11/06 01:46:58;;;;;;;13.85;6.60;;;;;;;8.11;75.60;102570.84;5038458;28;20056;-64
2021/11/06 01:49:26;;;;;;;15.35;6.35;;;;;;;8.35;75.23;102572.31;5038632;28;20064;-63
2021/11/06 01:51:54;;;;;;;15.18;6.88;;;;;;;8.37;74.91;102569.34;5055081;28;20472;-65
2021/11/06 01:54:23;;;;;;;12.13;6.43;;;;;;;8.22;74.92;102575.41;5056393;28;20049;-64
2021/11/06 01:56:54;;;;;;;13.57;6.80;;;;;;;8.25;74.94;102574.06;5056721;28;20492;-63
2021/11/06 01:59:22;;;;;;;16.75;7.10;;;;;;;8.23;75.30;102570.75;5056179;28;20535;-67
2021/11/06 02:01:52;;;;;;;11.25;6.47;;;;;;;8.26;75.50;102573.84;5020729;28;20057;-68
2021/11/06 02:04:19;;;;;;;18.60;7.40;;;;;;;8.25;75.44;102576.81;5056384;28;20060;-67
2021/11/06 02:06:47;;;;;;;13.38;7.15;;;;;;;8.07;75.69;102575.19;5056826;28;20063;-67
2021/11/06 02:09:14;;;;;;;14.10;7.30;;;;;;;8.20;75.27;102580.31;5055691;28;20071;-67
2021/11/06 02:11:42;;;;;;;14.45;6.75;;;;;;;8.19;75.37;102572.31;5056056;28;20048;-67
2021/11/06 02:14:09;;;;;;;15.55;6.75;;;;;;;8.28;75.03;102576.34;5054093;28;20048;-66
2021/11/06 02:16:37;;;;;;;13.95;7.47;;;;;;;8.09;75.13;102578.47;5054497;28;20052;-67
2021/11/06 02:19:04;;;;;;;14.38;6.85;;;;;;;8.07;75.78;102583.41;5055783;28;20392;-68
2021/11/06 02:21:36;;;;;;;14.50;7.20;;;;;;;8.32;74.84;102583.81;5056007;28;20056;-67
2021/11/06 02:24:04;;;;;;;13.85;7.00;;;;;;;8.09;75.48;102580.41;5064423;28;20392;-68
2021/11/06 02:26:32;;;;;;;11.88;6.75;;;;;;;8.00;75.39;102580.00;5058972;28;20052;-67
2021/11/06 02:29:11;;;;;;;19.15;7.03;;;;;;;8.23;75.40;102582.53;5055388;28;20068;-67
2021/11/06 02:31:38;;;;;;;14.90;7.43;;;;;;;8.24;75.01;102580.66;5054384;28;20053;-67
2021/11/06 02:34:06;;;;;;;16.38;7.60;;;;;;;8.14;75.13;102580.47;5055984;28;20524;-66
2021/11/06 02:36:33;;;;;;;13.10;7.30;;;;;;;8.19;75.04;102572.31;5051031;28;20041;-67
2021/11/06 02:39:01;;;;;;;14.27;7.40;;;;;;;8.18;75.00;102576.13;5075739;28;20079;-66
2021/11/06 02:41:29;;;;;;;15.50;7.10;;;;;;;8.20;75.06;102571.22;5056745;28;20053;-63
2021/11/06 02:43:59;;;;;;;16.00;7.90;;;;;;;8.16;74.38;102567.34;5054961;28;20065;-65
2021/11/06 02:46:26;;;;;;;17.10;6.57;;;;;;;8.06;74.89;102567.16;5056019;28;20069;-63
2021/11/06 02:48:53;;;;;;;11.75;6.75;;;;;;;7.99;75.03;102561.88;5055069;28;20048;-65
2021/11/06 02:51:20;;;;;;;12.48;6.90;;;;;;;8.15;74.88;102560.19;5056448;28;20045;-63
2021/11/06 02:53:48;;;;;;;15.45;6.75;;;;;;;7.80;75.31;102563.22;5055120;28;20045;-63
2021/11/06 02:56:15;;;;;;;15.93;7.25;;;;;;;7.30;77.56;102562.34;5053980;28;20053;-64
2021/11/06 02:58:42;;;;;;;14.55;6.75;;;;;;;7.46;77.25;102564.31;5053918;28;20055;-64
2021/11/06 03:01:10;;;;;;;13.85;7.20;;;;;;;7.29;78.33;102566.16;5055241;28;20056;-64
2021/11/06 03:03:38;;;;;;;13.25;7.22;;;;;;;7.57;78.23;102558.72;5053982;28;20061;-67
2021/11/06 03:06:05;;;;;;;14.57;7.53;;;;;;;7.65;77.66;102561.03;5055209;28;20049;-67
2021/11/06 03:08:32;;;;;;;14.88;6.82;;;;;;;7.80;76.94;102568.69;5055150;28;20494;-67
2021/11/06 03:11:00;;;;;;;12.63;6.38;;;;;;;7.83;76.37;102566.28;5054558;28;20420;-65
2021/11/06 03:13:27;;;;;;;13.05;6.60;;;;;;;7.59;77.16;102570.28;5055107;28;20120;-67
2021/11/06 03:15:55;;;;;;;14.02;7.03;;;;;;;7.84;76.97;102575.38;5053546;28;20049;-67
2021/11/06 03:18:22;;;;;;;12.13;6.65;;;;;;;7.65;76.59;102582.19;5054701;28;20412;-68
2021/11/06 03:20:50;;;;;;;13.45;6.22;;;;;;;7.64;77.43;102581.34;5056044;28;20068;-67
2021/11/06 03:23:18;;;;;;;15.30;6.05;;;;;;;7.73;76.80;102579.84;5033775;28;20061;-66
2021/11/06 03:25:45;;;;;;;13.43;5.88;;;;;;;7.64;76.96;102583.25;5054209;28;20400;-66
2021/11/06 03:28:12;;;;;;;14.82;6.07;;;;;;;7.70;77.00;102580.34;5059082;28;20057;-67
2021/11/06 03:30:40;;;;;;;10.75;5.93;;;;;;;7.74;76.30;102578.75;5059586;28;20053;-67
2021/11/06 03:33:07;;;;;;;11.95;5.63;;;;;;;7.81;75.84;102573.94;5058600;28;20041;-67
2021/11/06 03:35:34;;;;;;;10.63;5.40;;;;;;;7.97;75.62;102570.34;5058533;28;20049;-67
2021/11/06 03:38:02;;;;;;;10.50;5.53;;;;;;;8.02;75.18;102564.09;5057332;28;20052;-67
2021/11/06 03:40:29;;;;;;;13.52;6.05;;;;;;;7.77;75.66;102575.53;5063152;28;20049;-67
2021/11/06 03:42:57;;;;;;;11.52;6.22;;;;;;;7.75;76.00;102572.22;5065007;28;20055;-68
2021/11/06 03:45:24;;;;;;;13.27;5.93;;;;;;;7.71;76.21;102576.53;5065380;28;20645;-67
2021/11/06 03:47:51;;;;;;;11.10;6.22;;;;;;;7.70;76.13;102577.63;5058406;28;20056;-67
2021/11/06 03:50:19;;;;;;;14.60;6.22;;;;;;;7.84;75.99;102578.94;5073658;28;20048;-68
2021/11/06 03:52:46;;;;;;;16.40;6.63;;;;;;;7.71;75.64;102573.78;5058452;28;20436;-67
2021/11/06 03:55:14;;;;;;;12.88;5.75;;;;;;;7.41;77.19;102575.19;5058492;28;20053;-68
2021/11/06 03:57:41;;;;;;;12.73;5.72;;;;;;;7.39;77.68;102578.13;5058504;28;20052;-67
2021/11/06 04:00:11;;;;;;;11.32;5.70;;;;;;;7.42;77.75;102579.56;5058135;28;20049;-67
2021/11/06 04:02:39;;;;;;;11.90;6.70;;;;;;;7.34;77.82;102572.56;5058302;28;20461;-67
2021/11/06 04:05:07;;;;;;;11.00;6.35;;;;;;;7.46;77.60;102583.50;5058194;28;20049;-67
2021/11/06 04:07:34;;;;;;;11.90;6.65;;;;;;;7.19;77.80;102587.91;5057088;28;20381;-67
2021/11/06 04:10:03;;;;;;;13.10;6.97;;;;;;;7.25;77.57;102587.78;5057784;28;20064;-67
2021/11/06 04:12:30;;;;;;;12.80;7.63;;;;;;;7.33;78.22;102590.09;5057101;28;20063;-67
2021/11/06 04:14:57;;;;;;;14.68;6.97;;;;;;;7.28;77.62;102587.28;5058354;28;20045;-68
2021/11/06 04:17:24;;;;;;;11.65;6.45;;;;;;;7.22;77.57;102593.72;5056752;28;20463;-64
2021/11/06 04:19:55;;;;;;;10.77;6.40;;;;;;;7.36;77.32;102586.88;5057910;28;20048;-63
2021/11/06 04:22:22;;;;;;;12.13;6.18;;;;;;;7.34;76.89;102590.94;5058265;28;20049;-64
2021/11/06 04:24:49;;;;;;;10.60;5.95;;;;;;;7.20;77.19;102600.56;5058226;28;20056;-63
2021/11/06 04:27:17;;;;;;;12.55;6.25;;;;;;;7.14;77.99;102604.25;5073415;28;20049;-65
2021/11/06 04:29:44;;;;;;;10.63;5.90;;;;;;;7.16;78.01;102604.84;5056466;28;20055;-63
2021/11/06 04:32:11;;;;;;;10.65;6.20;;;;;;;7.28;77.03;102597.41;5057658;28;20045;-64
2021/11/06 04:34:38;;;;;;;12.05;6.40;;;;;;;7.41;77.09;102597.91;5058038;28;20064;-64
2021/11/06 04:37:06;;;;;;;12.50;5.93;;;;;;;7.47;76.41;102605.19;5056742;28;20547;-64
2021/11/06 04:39:33;;;;;;;12.85;6.18;;;;;;;7.53;76.50;102606.91;5061070;28;20056;-64
2021/11/06 04:42:01;;;;;;;10.93;6.35;;;;;;;7.45;76.08;102603.75;5058618;28;20057;-63
2021/11/06 04:44:28;;;;;;;10.57;5.90;;;;;;;7.34;76.80;102604.66;5057958;28;20408;-64
2021/11/06 04:46:56;;;;;;;10.93;5.75;;;;;;;7.51;76.11;102611.84;5057491;28;20047;-64
2021/11/06 04:49:23;;;;;;;11.68;5.97;;;;;;;7.50;75.95;102601.09;5057564;28;20603;-64
2021/11/06 04:51:51;;;;;;;12.80;6.53;;;;;;;7.69;75.68;102595.13;5056102;28;20056;-64
2021/11/06 04:54:19;;;;;;;9.20;5.15;;;;;;;7.78;74.68;102601.03;5056174;28;20503;-64
2021/11/06 04:56:48;;;;;;;12.63;6.10;;;;;;;7.53;75.41;102606.09;5055601;28;20084;-65
2021/11/06 04:59:15;;;;;;;11.30;6.07;;;;;;;7.40;76.07;102606.41;5057132;28;20065;-64
2021/11/06 05:01:43;;;;;;;12.23;6.20;;;;;;;7.44;75.87;102615.81;5055865;28;20685;-63
2021/11/06 05:04:10;;;;;;;10.77;6.28;;;;;;;7.26;76.24;102611.34;5046265;28;20049;-64
2021/11/06 05:06:37;;;;;;;12.38;6.30;;;;;;;6.85;77.49;102615.19;5056202;28;20049;-64
2021/11/06 05:09:04;;;;;;;11.55;7.03;;;;;;;6.83;78.40;102613.78;5057148;28;20053;-65
2021/11/06 05:11:32;;;;;;;16.13;6.93;;;;;;;7.16;77.26;102608.44;5055487;28;20084;-64
2021/11/06 05:14:02;;;;;;;14.02;7.47;;;;;;;7.12;76.81;102607.25;5057008;28;20127;-64
2021/11/06 05:16:31;;;;;;;16.27;8.38;;;;;;;7.51;76.01;102597.28;5056492;28;20048;-64
2021/11/06 05:18:59;;;;;;;14.40;8.75;;;;;;;7.16;76.30;102599.38;5056819;28;20055;-64
2021/11/06 05:21:34;;;;;;;13.13;8.43;;;;;;;6.95;77.08;102602.78;5038675;28;20061;-63
2021/11/06 05:24:06;;;;;;;18.63;8.50;;;;;;;7.23;76.60;102600.06;5054829;28;20057;-63
2021/11/06 05:26:36;;;;;;;10.82;6.75;;;;;;;7.19;76.47;102598.88;5045017;28;20053;-63
2021/11/06 05:29:06;;;;;;;12.63;7.32;;;;;;;7.31;76.01;102596.91;5056930;28;20753;-63
2021/11/06 05:31:34;;;;;;;14.68;6.80;;;;;;;7.36;75.66;102597.84;5055996;28;20045;-63
2021/11/06 05:34:02;;;;;;;14.15;6.50;;;;;;;7.38;75.27;102595.69;5056331;28;20052;-64
2021/11/06 05:36:29;;;;;;;13.20;6.20;;;;;;;7.38;75.58;102589.34;5056472;28;20492;-63
2021/11/06 05:38:57;;;;;;;12.27;6.70;;;;;;;7.63;74.41;102595.31;5058281;28;20044;-63
2021/11/06 05:41:24;;;;;;;12.65;6.30;;;;;;;7.30;74.98;102593.34;5056840;28;20052;-65
2021/11/06 05:43:56;;;;;;;13.98;6.57;;;;;;;7.27;75.64;102590.28;5056371;28;20056;-64
2021/11/06 05:46:23;;;;;;;12.77;6.65;;;;;;;7.36;75.34;102584.13;5021649;28;20091;-64
2021/11/06 05:48:51;;;;;;;13.15;6.82;;;;;;;7.32;75.77;102582.94;5056284;28;20060;-63
2021/11/06 05:51:37;;;;;;;15.20;6.95;;;;;;;7.52;74.94;102587.97;5055369;28;20053;-64
2021/11/06 05:54:04;;;;;;;16.95;7.78;;;;;;;7.41;75.21;102595.19;5038558;28;20067;-64
2021/11/06 05:56:31;;;;;;;16.92;7.72;;;;;;;7.36;75.27;102586.03;5054724;28;20052;-64
2021/11/06 05:58:59;;;;;;;11.75;7.05;;;;;;;7.18;75.56;102603.53;5038760;28;20048;-63
2021/11/06 06:01:26;;;;;;;19.17;7.53;;;;;;;7.21;75.96;102605.78;5053827;28;20057;-63
2021/11/06 06:03:53;;;;;;;15.75;8.18;;;;;;;6.94;76.84;102601.94;5056153;28;20049;-65
2021/11/06 06:06:21;;;;;;;12.05;7.82;;;;;;;6.56;78.30;102605.25;5053805;28;20048;-63
2021/11/06 06:08:49;;;;;;;15.93;8.05;;;;;;;6.70;78.30;102608.56;5038192;28;20060;-65
2021/11/06 06:11:16;;;;;;;15.68;8.18;;;;;;;7.00;77.60;102609.19;5055918;28;20155;-64
2021/11/06 06:13:43;;;;;;;15.15;8.38;;;;;;;6.74;78.28;102609.75;5054917;28;20045;-63
2021/11/06 06:16:10;;;;;;;17.33;7.80;;;;;;;6.63;78.37;102611.44;5055006;28;20053;-64
2021/11/06 06:18:38;;;;;;;16.52;8.00;;;;;;;6.76;78.46;102618.56;5055817;28;20076;-64
2021/11/06 06:21:05;;;;;;;12.98;6.90;;;;;;;6.98;77.71;102616.81;5055807;28;20053;-64
2021/11/06 06:23:33;;;;;;;12.75;7.28;;;;;;;7.18;76.93;102625.47;5054382;28;20065;-64
2021/11/06 06:26:00;;;;;;;14.60;7.13;;;;;;;7.30;76.08;102622.66;5055412;28;20045;-64
2021/11/06 06:28:27;;;;;;;14.85;7.95;;;;;;;6.95;76.89;102631.00;5055880;28;20354;-63
2021/11/06 06:30:54;;;;;;;12.80;7.47;;;;;;;7.01;76.60;102623.75;5055895;28;20067;-65
2021/11/06 06:33:22;;;;;;;16.55;6.80;;;;;;;7.18;76.53;102627.38;5066263;28;20536;-63
2021/11/06 06:35:49;;;;;;;15.48;6.82;;;;;;;7.21;76.11;102635.94;5050777;28;20619;-67
2021/11/06 06:38:16;;;;;;;13.55;7.15;;;;;;;7.16;76.38;102635.00;5044458;28;20056;-67
2021/11/06 06:40:44;;;;;;;15.00;7.72;;;;;;;7.11;76.13;102635.75;5055197;28;20052;-67
2021/11/06 06:43:11;;;;;;;15.82;7.72;;;;;;;7.05;76.39;102642.19;5055917;28;20053;-67
2021/11/06 06:45:38;;;;;;;18.05;8.93;;;;;;;7.08;76.69;102641.69;5054489;28;20064;-67
2021/11/06 06:48:06;;;;;;;24.27;8.98;;;;;;;6.71;78.29;102646.66;5054540;28;20519;-67
2021/11/06 06:50:33;;;;;;;20.05;8.43;;;;;;;7.09;76.74;102639.78;5053676;28;20048;-68
2021/11/06 06:53:00;;;;;;;17.10;8.75;;;;;;;7.12;76.37;102644.75;5069119;28;20059;-68
2021/11/06 06:55:28;;;;;;;21.98;10.50;;;;;;;6.88;77.16;102643.19;5052210;28;20534;-64
2021/11/06 06:57:55;;;;;;;17.73;9.80;;;;;;;6.78;77.89;102638.34;5054051;28;20052;-64
2021/11/06 07:00:22;;;;;;;18.95;10.18;;;;;;;7.00;77.74;102641.22;5053129;28;20049;-63
2021/11/06 07:02:49;;;;;;;17.10;9.95;;;;;;;7.27;76.46;102647.81;5048421;28;20060;-64
2021/11/06 07:05:18;;;;;;;16.77;9.82;;;;;;;7.32;76.24;102639.69;5039020;28;20061;-64
2021/11/06 07:07:45;;;;;;;15.35;9.63;;;;;;;7.26;76.15;102640.66;5069868;28;20057;-64
2021/11/06 07:10:12;;;;;;;15.35;9.45;;;;;;;7.27;75.71;102640.41;5037284;28;20057;-64
2021/11/06 07:12:41;;;;;;;15.63;8.98;;;;;;;7.23;76.20;102641.16;5036049;28;20048;-62
2021/11/06 07:15:08;;;;;;;20.45;8.75;;;;;;;7.05;76.67;102647.66;5053774;28;20052;-63
2021/11/06 07:17:36;;;;;;;14.50;8.40;;;;;;;7.04;76.82;102651.47;5049589;28;20496;-63
2021/11/06 07:20:04;;;;;;;14.60;8.57;;;;;;;7.18;77.02;102647.38;5054499;28;20064;-67
2021/11/06 07:22:32;;;;;;;19.13;8.80;;;;;;;7.35;76.44;102645.53;5055960;28;20049;-63
2021/11/06 07:24:59;;;;;;;19.95;8.23;;;;;;;7.43;75.94;102644.28;5038311;28;20049;-64
2021/11/06 07:27:26;;;;;;;17.73;8.80;;;;;;;7.02;76.58;102647.31;5054572;28;20064;-64
2021/11/06 07:29:56;;;;;;;18.02;8.60;;;;;;;7.22;76.41;102647.72;5053829;28;20060;-63
2021/11/06 07:32:24;;;;;;;16.05;8.38;;;;;;;7.40;75.98;102640.13;5052208;28;20159;-63
2021/11/06 07:34:51;;;;;;;32.78;15.88;;;;;;;7.55;75.41;102642.34;5062562;28;20068;-63
2021/11/06 07:37:18;;;;;;;29.30;16.33;;;;;;;7.64;75.13;102638.09;5054036;28;20540;-63
2021/11/06 07:39:46;;;;;;;20.80;10.43;;;;;;;7.55;75.01;102650.56;5061215;28;20053;-63
2021/11/06 07:42:13;;;;;;;16.50;8.63;;;;;;;7.46;75.25;102649.28;5054664;28;20407;-63
2021/11/06 07:44:40;;;;;;;18.05;8.50;;;;;;;7.27;75.11;102643.16;5055903;28;20064;-63
2021/11/06 07:47:08;;;;;;;14.25;7.82;;;;;;;7.48;75.50;102644.41;5053889;28;20516;-64
2021/11/06 07:49:35;;;;;;;17.98;8.65;;;;;;;7.48;74.35;102644.41;5054548;28;20060;-63
2021/11/06 07:52:02;;;;;;;14.18;8.15;;;;;;;7.44;74.71;102648.69;5053191;28;20041;-64
2021/11/06 07:54:30;;;;;;;20.40;11.80;;;;;;;7.54;74.45;102644.25;5053135;28;20535;-63
2021/11/06 07:56:58;;;;;;;30.65;15.05;;;;;;;7.68;74.28;102642.00;5053688;28;20049;-63
2021/11/06 07:59:25;;;;;;;22.88;12.60;;;;;;;7.79;74.21;102643.84;5055613;28;20041;-63
2021/11/06 08:01:54;;;;;;;17.83;8.45;;;;;;;7.52;74.08;102651.03;5055725;28;20040;-64
2021/11/06 08:04:21;;;;;;;16.05;8.20;;;;;;;7.52;74.29;102654.63;5052482;28;20056;-64
2021/11/06 08:06:48;;;;;;;13.48;7.35;;;;;;;7.60;73.87;102654.19;5051762;28;20509;-64
2021/11/06 08:09:16;;;;;;;14.98;7.00;;;;;;;7.36;74.08;102660.88;5053090;28;20056;-65
2021/11/06 08:11:43;;;;;;;14.05;7.47;;;;;;;7.43;73.56;102652.50;5051517;28;20079;-67
2021/11/06 08:14:10;;;;;;;12.45;7.28;;;;;;;7.71;73.20;102658.81;5068322;28;20063;-67
2021/11/06 08:16:38;;;;;;;14.98;6.95;;;;;;;7.88;72.34;102661.56;5059275;28;20056;-67
2021/11/06 08:19:05;;;;;;;15.48;7.40;;;;;;;8.06;71.73;102655.84;5058166;28;20052;-68
2021/11/06 08:21:32;;;;;;;11.82;6.70;;;;;;;8.27;71.08;102660.59;5055808;28;20041;-64
2021/11/06 08:23:59;;;;;;;12.40;6.60;;;;;;;8.32;70.87;102652.44;5060809;28;20049;-64
2021/11/06 08:26:27;;;;;;;10.82;6.55;;;;;;;8.36;70.13;102659.09;5058996;28;20053;-68
2021/11/06 08:28:55;;;;;;;12.07;6.55;;;;;;;8.57;69.85;102661.06;5058523;28;20049;-64
2021/11/06 08:31:22;;;;;;;12.60;6.40;;;;;;;8.42;69.54;102660.81;5056932;28;20049;-64
2021/11/06 08:33:50;;;;;;;12.95;6.10;;;;;;;8.47;69.36;102662.84;5060528;28;20067;-64
2021/11/06 08:36:17;;;;;;;14.93;6.78;;;;;;;8.71;68.67;102661.53;5049166;28;20412;-63
2021/11/06 08:38:44;;;;;;;9.52;6.00;;;;;;;8.59;68.83;102661.66;5059201;28;20056;-64
2021/11/06 08:41:12;;;;;;;10.40;6.55;;;;;;;8.46;68.45;102651.00;5066588;28;20048;-67
2021/11/06 08:43:39;;;;;;;11.77;6.72;;;;;;;8.61;68.50;102653.97;5071669;28;20053;-67
2021/11/06 08:46:06;;;;;;;12.57;6.63;;;;;;;8.67;68.32;102650.22;5054018;28;20124;-66
2021/11/06 08:48:35;;;;;;;10.95;6.15;;;;;;;8.92;68.14;102644.22;5055617;28;20382;-65
2021/11/06 08:51:03;;;;;;;14.32;6.93;;;;;;;8.65;67.70;102640.56;5056557;28;20049;-66
2021/11/06 08:53:30;;;;;;;12.57;6.53;;;;;;;8.64;68.28;102644.41;5055102;28;20147;-65
2021/11/06 08:55:57;;;;;;;14.93;6.43;;;;;;;8.86;67.79;102637.81;5070638;28;20060;-66
2021/11/06 08:58:25;;;;;;;13.13;5.70;;;;;;;8.88;66.79;102641.16;5056576;28;20049;-65
2021/11/06 09:00:53;;;;;;;14.13;6.57;;;;;;;8.82;66.71;102653.16;5054491;28;20064;-68
2021/11/06 09:03:22;;;;;;;11.15;6.22;;;;;;;9.07;66.49;102652.66;5056327;28;20044;-66
2021/11/06 09:05:51;;;;;;;12.73;6.23;;;;;;;9.36;65.66;102656.03;5055622;28;20045;-66
2021/11/06 09:08:24;;;;;;;11.30;5.80;;;;;;;9.42;65.08;102655.81;5056674;28;20299;-66
2021/11/06 09:10:55;;;;;;;9.65;5.93;;;;;;;9.50;64.58;102654.53;5045936;28;20057;-66
2021/11/06 09:13:24;;;;;;;13.93;5.30;;;;;;;9.62;63.58;102649.69;5054954;28;20041;-65
2021/11/06 09:15:59;;;;;;;9.02;5.18;;;;;;;9.69;62.88;102644.81;5056142;28;20408;-65
2021/11/06 09:18:27;;;;;;;12.50;5.25;;;;;;;9.78;62.58;102654.25;5056652;28;20041;-66
2021/11/06 09:20:54;;;;;;;9.25;4.97;;;;;;;9.90;61.80;102654.94;5050716;28;20060;-66
2021/11/06 09:23:22;;;;;;;13.68;5.70;;;;;;;9.70;61.92;102651.97;5050925;28;20415;-66
2021/11/06 09:25:49;;;;;;;8.38;4.60;;;;;;;9.62;61.80;102646.94;5051190;28;20053;-66
2021/11/06 09:28:17;;;;;;;8.05;4.45;;;;;;;9.69;61.18;102648.38;5055296;28;20064;-67
2021/11/06 09:30:44;;;;;;;14.60;4.60;;;;;;;9.61;61.74;102659.03;5055090;28;20040;-64
2021/11/06 09:33:12;;;;;;;9.50;4.47;;;;;;;9.66;61.66;102650.84;5055826;28;20049;-69
2021/11/06 09:35:39;;;;;;;10.52;4.32;;;;;;;9.75;61.23;102658.34;5055733;28;20060;-67
2021/11/06 09:38:06;;;;;;;8.30;4.40;;;;;;;9.86;60.83;102649.13;5053895;28;20049;-67
2021/11/06 09:40:34;;;;;;;10.85;4.47;;;;;;;10.12;60.51;102641.91;5036864;28;20049;-66
2021/11/06 09:43:01;;;;;;;11.13;4.50;;;;;;;10.14;60.14;102642.50;5049746;28;20551;-68
2021/11/06 09:45:29;;;;;;;7.72;4.38;;;;;;;10.19;59.54;102639.78;5054282;28;20056;-66
2021/11/06 09:47:56;;;;;;;9.10;4.20;;;;;;;10.02;59.81;102639.88;5055036;28;20053;-67
2021/11/06 09:50:23;;;;;;;8.10;4.60;;;;;;;9.91;60.40;102640.91;5055735;28;20396;-66
2021/11/06 09:52:52;;;;;;;12.05;4.78;;;;;;;10.16;60.45;102635.59;5055975;28;20055;-66
2021/11/06 09:55:22;;;;;;;10.38;4.80;;;;;;;10.67;59.51;102636.75;5056688;28;20057;-68
2021/11/06 09:57:50;;;;;;;7.50;4.50;;;;;;;10.73;58.91;102634.88;5055636;28;20052;-67
2021/11/06 10:00:19;;;;;;;9.75;4.70;;;;;;;10.54;58.68;102636.41;5054547;28;20423;-66
2021/11/06 10:02:46;;;;;;;15.00;4.85;;;;;;;10.56;58.52;102626.81;5055275;28;20052;-67
2021/11/06 10:05:14;;;;;;;11.63;5.00;;;;;;;10.73;58.40;102629.34;5070712;28;20049;-68
2021/11/06 10:07:42;;;;;;;13.15;5.15;;;;;;;10.86;58.21;102623.38;5053980;28;20068;-66
2021/11/06 10:10:15;;;;;;;9.75;5.60;;;;;;;10.82;58.12;102638.78;5055249;28;20496;-67
2021/11/06 10:13:02;;;;;;;10.40;4.70;;;;;;;10.87;57.41;102627.78;5055882;28;20048;-67
2021/11/06 10:15:29;;;;;;;8.07;4.35;;;;;;;10.81;57.88;102632.44;5055367;28;20048;-67
2021/11/06 10:18:29;;;;;;;8.65;4.85;;;;;;;10.91;57.66;102637.97;5054428;28;20465;-68
2021/11/06 10:21:01;;;;;;;;;;;;;;;11.24;57.52;102634.00;5040433;28;20527;-66
2021/11/06 10:23:33;;;;;;;13.75;4.75;;;;;;;11.22;56.96;102628.75;5052292;28;19920;-65
2021/11/06 10:26:13;;;;;;;9.55;4.35;;;;;;;11.31;56.61;102620.78;5055518;28;20057;-62
2021/11/06 10:28:40;;;;;;;11.30;4.50;;;;;;;11.56;56.45;102622.75;5053447;28;20057;-64
2021/11/06 10:31:08;;;;;;;10.00;4.85;;;;;;;11.68;55.43;102621.41;5071621;28;20056;-64
2021/11/06 10:33:47;;;;;;;11.45;5.72;;;;;;;11.63;55.77;102612.28;5054949;28;20127;-64
2021/11/06 10:36:20;;;;;;;12.45;5.90;;;;;;;11.46;55.89;102617.19;5052876;28;20036;-64
2021/11/06 10:39:11;;;;;;;13.23;5.93;;;;;;;11.61;55.68;102608.97;5056805;28;20048;-63
2021/11/06 10:41:40;;;;;;;16.42;7.95;;;;;;;11.80;55.34;102623.91;5059780;28;20053;-63
2021/11/06 10:44:08;;;;;;;9.45;5.60;;;;;;;11.71;55.37;102609.00;5054565;28;20079;-65
2021/11/06 10:46:35;;;;;;;12.15;5.25;;;;;;;11.75;56.02;102608.16;5046375;28;20053;-65
2021/11/06 10:49:04;;;;;;;8.55;4.65;;;;;;;11.49;56.23;102609.19;5048114;28;20052;-66
2021/11/06 10:51:32;;;;;;;10.43;4.20;;;;;;;11.38;55.16;102604.78;5047508;28;20416;-66
2021/11/06 10:54:01;;;;;;;9.00;4.00;;;;;;;11.46;54.59;102593.19;5054334;28;20500;-66
2021/11/06 10:56:39;;;;;;;9.05;4.50;;;;;;;11.72;54.48;102605.13;5050166;28;20045;-67
2021/11/06 10:59:09;;;;;;;8.40;4.55;;;;;;;11.67;54.49;102608.72;5039123;28;20056;-67
2021/11/06 11:01:39;;;;;;;12.98;4.50;;;;;;;11.80;53.59;102601.81;5045032;28;20045;-68
2021/11/06 11:04:12;;;;;;;8.80;4.03;;;;;;;11.37;53.94;102603.13;5054905;28;20052;-66
2021/11/06 11:06:42;;;;;;;9.40;4.40;;;;;;;11.49;54.53;102600.13;5055045;28;20052;-67
2021/11/06 11:09:16;;;;;;;7.32;4.45;;;;;;;11.60;53.85;102602.59;5055108;28;20045;-67
2021/11/06 11:11:45;;;;;;;7.15;3.88;;;;;;;11.83;53.35;102593.81;5054947;28;20044;-67
2021/11/06 11:14:20;;;;;;;9.13;4.25;;;;;;;11.98;53.00;102590.22;5053599;28;20053;-67
2021/11/06 11:16:55;;;;;;;8.15;4.05;;;;;;;11.94;52.93;102584.41;5055330;28;20064;-66
2021/11/06 11:19:44;;;;;;;8.07;4.15;;;;;;;11.91;52.78;102584.13;5068536;28;20443;-67
2021/11/06 11:22:21;;;;;;;9.25;4.57;;;;;;;11.80;53.15;102583.31;5055002;28;20045;-67
2021/11/06 11:24:49;;;;;;;7.03;4.10;;;;;;;11.91;52.79;102587.72;5053632;28;20068;-67
2021/11/06 11:27:26;;;;;;;10.30;3.60;;;;;;;11.86;53.08;102586.91;5054435;28;20047;-68
2021/11/06 11:29:54;;;;;;;8.63;3.22;;;;;;;11.68;53.91;102577.22;5069379;28;20382;-67